createdAt,value
2023-09-07T00:01:39.099Z,11.40
2023-09-07T00:04:07.935Z,11.50
2023-09-07T00:06:35.765Z,11.40
2023-09-07T00:09:06.608Z,11.40
2023-09-07T00:11:34.328Z,11.40
2023-09-07T00:14:01.318Z,11.30
2023-09-07T00:16:28.385Z,11.20
2023-09-07T00:18:55.551Z,11.20
2023-09-07T00:21:23.426Z,11.20
2023-09-07T00:23:50.316Z,11.10
2023-09-07T00:26:17.357Z,11.20
2023-09-07T00:28:44.817Z,11.20
2023-09-07T00:31:11.887Z,11.20
2023-09-07T00:33:39.132Z,11.20
2023-09-07T00:36:06.384Z,11.20
2023-09-07T00:38:33.637Z,11.20
2023-09-07T00:41:00.767Z,11.20
2023-09-07T00:43:27.825Z,11.30
2023-09-07T00:45:55.534Z,11.30
2023-09-07T00:48:23.244Z,11.20
2023-09-07T00:50:50.396Z,11.30
2023-09-07T00:53:17.995Z,11.30
2023-09-07T00:55:46.194Z,11.30
2023-09-07T00:58:13.729Z,11.20
2023-09-07T01:00:41.558Z,11.20
2023-09-07T01:03:10.217Z,11.20
2023-09-07T01:06:03.525Z,11.20
2023-09-07T01:08:40.054Z,11.20
2023-09-07T01:11:24.269Z,11.30
2023-09-07T01:13:54.996Z,11.30
2023-09-07T01:16:23.248Z,11.20
2023-09-07T01:18:50.722Z,11.20
2023-09-07T01:21:20.105Z,11.30
2023-09-07T01:23:48.853Z,11.30
2023-09-07T01:26:15.982Z,11.30
2023-09-07T01:28:43.151Z,11.40
2023-09-07T01:31:10.930Z,11.50
2023-09-07T01:33:38.386Z,11.40
2023-09-07T01:36:05.845Z,11.30
2023-09-07T01:38:33.117Z,11.30
2023-09-07T01:41:00.419Z,11.30
2023-09-07T01:43:27.517Z,11.30
2023-09-07T01:45:54.608Z,11.30
2023-09-07T01:48:21.672Z,11.30
2023-09-07T01:50:53.018Z,11.30
2023-09-07T01:53:20.284Z,11.30
2023-09-07T01:55:48.929Z,11.30
2023-09-07T01:58:16.047Z,11.20
2023-09-07T02:00:43.084Z,11.20
2023-09-07T02:03:11.651Z,11.20
2023-09-07T02:05:38.761Z,11.10
2023-09-07T02:08:06.232Z,11.10
2023-09-07T02:10:34.203Z,11.10
2023-09-07T02:13:01.146Z,11.10
2023-09-07T02:15:28.144Z,11.10
2023-09-07T02:17:55.051Z,11.10
2023-09-07T02:20:22.591Z,11.10
2023-09-07T02:22:49.598Z,11.10
2023-09-07T02:25:16.576Z,11.10
2023-09-07T02:27:43.872Z,11.10
2023-09-07T02:30:11.205Z,11.10
2023-09-07T02:32:38.220Z,11.10
2023-09-07T02:35:05.685Z,11.00
2023-09-07T02:37:32.828Z,11.00
2023-09-07T02:39:59.969Z,10.90
2023-09-07T02:42:27.209Z,10.90
2023-09-07T02:44:54.749Z,10.90
2023-09-07T02:47:22.724Z,10.80
2023-09-07T02:49:49.746Z,10.80
2023-09-07T02:52:17.405Z,10.80
2023-09-07T02:54:44.619Z,10.80
2023-09-07T02:57:13.628Z,10.80
2023-09-07T02:59:41.803Z,10.80
2023-09-07T03:02:08.876Z,10.70
2023-09-07T03:04:35.939Z,10.70
2023-09-07T03:07:03.532Z,10.70
2023-09-07T03:09:30.521Z,10.70
2023-09-07T03:11:57.619Z,10.70
2023-09-07T03:14:25.774Z,10.80
2023-09-07T03:16:53.464Z,10.70
2023-09-07T03:19:20.459Z,10.70
2023-09-07T03:21:47.548Z,10.60
2023-09-07T03:24:16.789Z,10.60
2023-09-07T03:26:45.045Z,10.50
2023-09-07T03:29:12.264Z,10.50
2023-09-07T03:31:39.403Z,10.50
2023-09-07T03:34:07.276Z,10.60
2023-09-07T03:36:34.448Z,10.60
2023-09-07T03:39:01.470Z,10.70
2023-09-07T03:41:31.918Z,10.70
2023-09-07T03:44:00.315Z,10.60
2023-09-07T03:46:28.246Z,10.70
2023-09-07T03:48:55.353Z,10.70
2023-09-07T03:51:22.417Z,10.70
2023-09-07T03:53:49.360Z,10.70
2023-09-07T03:56:16.563Z,10.70
2023-09-07T03:58:43.744Z,10.70
2023-09-07T04:01:10.796Z,10.70
2023-09-07T04:03:38.060Z,10.80
2023-09-07T04:06:05.915Z,10.80
2023-09-07T04:08:33.528Z,10.70
2023-09-07T04:11:05.258Z,10.70
2023-09-07T04:13:32.983Z,10.70
2023-09-07T04:16:00.546Z,10.70
2023-09-07T04:18:27.648Z,10.80
2023-09-07T04:20:54.646Z,10.80
2023-09-07T04:23:21.652Z,10.80
2023-09-07T04:25:49.213Z,10.80
2023-09-07T04:28:16.320Z,10.80
2023-09-07T04:30:43.615Z,10.80
2023-09-07T04:33:10.847Z,10.80
2023-09-07T04:35:39.315Z,10.90
2023-09-07T04:38:07.278Z,10.80
2023-09-07T04:40:34.564Z,10.90
2023-09-07T04:43:01.578Z,10.90
2023-09-07T04:45:28.650Z,10.90
2023-09-07T04:47:55.937Z,10.90
2023-09-07T04:50:23.037Z,10.90
2023-09-07T04:52:50.304Z,10.90
2023-09-07T04:55:17.665Z,10.90
2023-09-07T04:57:44.800Z,10.90
2023-09-07T05:00:12.443Z,11.00
2023-09-07T05:02:43.305Z,11.00
2023-09-07T05:05:10.778Z,11.10
2023-09-07T05:07:37.759Z,11.10
2023-09-07T05:10:05.436Z,11.00
2023-09-07T05:12:32.736Z,11.00
2023-09-07T05:15:00.974Z,11.00
2023-09-07T05:17:28.836Z,11.00
2023-09-07T05:19:55.833Z,11.10
2023-09-07T05:22:23.391Z,11.10
2023-09-07T05:24:50.857Z,11.10
2023-09-07T05:27:17.840Z,11.10
2023-09-07T05:29:45.492Z,11.10
2023-09-07T05:32:14.172Z,11.10
2023-09-07T05:34:41.282Z,11.20
2023-09-07T05:37:09.050Z,11.30
2023-09-07T05:39:36.147Z,11.30
2023-09-07T05:42:03.231Z,11.30
2023-09-07T05:44:30.285Z,11.40
2023-09-07T05:46:59.984Z,11.30
2023-09-07T05:49:29.128Z,11.30
2023-09-07T05:51:56.376Z,11.40
2023-09-07T05:54:24.857Z,11.40
2023-09-07T05:56:51.885Z,11.50
2023-09-07T05:59:19.752Z,11.50
2023-09-07T06:01:46.809Z,11.50
2023-09-07T06:04:14.227Z,11.60
2023-09-07T06:06:41.330Z,11.60
2023-09-07T06:09:08.360Z,11.70
2023-09-07T06:11:36.046Z,11.80
2023-09-07T06:14:04.300Z,11.80
2023-09-07T06:16:31.323Z,11.80
2023-09-07T06:18:58.484Z,11.80
2023-09-07T06:21:25.587Z,11.90
2023-09-07T06:23:53.147Z,11.80
2023-09-07T06:26:20.942Z,11.90
2023-09-07T06:28:48.154Z,12.00
2023-09-07T06:31:17.328Z,12.10
2023-09-07T06:33:46.128Z,12.20
2023-09-07T06:36:13.120Z,12.40
2023-09-07T06:38:40.064Z,12.50
2023-09-07T06:41:08.869Z,12.70
2023-09-07T06:43:37.354Z,12.80
2023-09-07T06:46:09.203Z,13.00
2023-09-07T06:48:36.911Z,13.10
2023-09-07T06:51:05.527Z,13.30
2023-09-07T06:53:49.106Z,13.50
2023-09-07T06:56:21.074Z,13.70
2023-09-07T06:58:49.088Z,13.90
2023-09-07T07:01:16.572Z,14.10
2023-09-07T07:03:43.870Z,14.20
2023-09-07T07:06:11.551Z,14.40
2023-09-07T07:08:38.963Z,14.60
2023-09-07T07:11:06.087Z,14.70
2023-09-07T07:13:33.239Z,14.80
2023-09-07T07:16:00.236Z,15.00
2023-09-07T07:18:27.645Z,15.10
2023-09-07T07:20:54.693Z,15.30
2023-09-07T07:23:21.639Z,15.30
2023-09-07T07:25:48.674Z,15.30
2023-09-07T07:28:15.768Z,15.30
2023-09-07T07:30:43.123Z,15.40
2023-09-07T07:33:13.147Z,15.30
2023-09-07T07:35:40.690Z,15.40
2023-09-07T07:38:08.751Z,15.40
2023-09-07T07:40:37.750Z,15.40
2023-09-07T07:43:05.087Z,15.40
2023-09-07T07:45:33.221Z,15.40
2023-09-07T07:48:00.271Z,15.40
2023-09-07T07:50:27.249Z,15.50
2023-09-07T07:52:54.521Z,15.50
2023-09-07T07:55:21.693Z,15.50
2023-09-07T07:57:48.851Z,15.60
2023-09-07T08:00:16.393Z,15.70
2023-09-07T08:02:50.488Z,15.90
2023-09-07T08:05:18.319Z,16.10
2023-09-07T08:07:45.390Z,16.30
2023-09-07T08:10:13.013Z,16.40
2023-09-07T08:12:40.186Z,16.60
2023-09-07T08:15:07.375Z,16.70
2023-09-07T08:17:35.221Z,16.90
2023-09-07T08:20:02.658Z,17.10
2023-09-07T08:22:30.108Z,17.10
2023-09-07T08:25:00.174Z,17.00
2023-09-07T08:27:27.126Z,17.10
2023-09-07T08:29:56.142Z,17.20
2023-09-07T08:32:23.984Z,17.40
2023-09-07T08:34:51.866Z,17.50
2023-09-07T08:37:19.009Z,17.70
2023-09-07T08:39:45.999Z,17.80
2023-09-07T08:42:13.446Z,17.80
2023-09-07T08:44:43.646Z,17.90
2023-09-07T08:47:11.163Z,18.00
2023-09-07T08:49:38.478Z,18.20
2023-09-07T08:52:06.295Z,18.30
2023-09-07T08:54:34.223Z,18.40
2023-09-07T08:57:05.418Z,18.50
2023-09-07T08:59:32.444Z,18.70
2023-09-07T09:01:59.900Z,18.70
2023-09-07T09:04:29.598Z,18.80
2023-09-07T09:06:57.088Z,18.80
2023-09-07T09:09:28.389Z,18.90
2023-09-07T09:11:55.445Z,18.90
2023-09-07T09:14:25.086Z,19.00
2023-09-07T09:16:53.186Z,19.00
2023-09-07T09:19:20.658Z,19.10
2023-09-07T09:21:48.013Z,19.10
2023-09-07T09:24:16.566Z,19.10
2023-09-07T09:26:43.586Z,19.20
2023-09-07T09:29:12.336Z,19.30
2023-09-07T09:31:39.612Z,19.20
2023-09-07T09:34:07.597Z,19.10
2023-09-07T09:36:36.307Z,19.10
2023-09-07T09:39:04.349Z,19.10
2023-09-07T09:41:37.291Z,19.10
2023-09-07T09:44:05.098Z,19.20
2023-09-07T09:46:33.945Z,19.40
2023-09-07T09:49:01.847Z,19.60
2023-09-07T09:51:32.992Z,19.60
2023-09-07T09:54:01.788Z,19.60
2023-09-07T09:56:28.731Z,19.70
2023-09-07T09:58:55.653Z,19.80
2023-09-07T10:01:24.215Z,19.90
2023-09-07T10:03:54.381Z,20.00
2023-09-07T10:06:25.560Z,20.10
2023-09-07T10:09:07.897Z,20.20
2023-09-07T10:11:38.843Z,20.20
2023-09-07T10:14:07.652Z,20.30
2023-09-07T10:16:48.684Z,20.40
2023-09-07T10:19:24.020Z,20.60
2023-09-07T10:21:55.182Z,20.50
2023-09-07T10:24:37.059Z,20.50
2023-09-07T10:27:09.501Z,20.40
2023-09-07T10:29:44.551Z,20.20
2023-09-07T10:32:14.363Z,20.20
2023-09-07T10:34:45.546Z,20.30
2023-09-07T10:37:16.970Z,20.40
2023-09-07T10:39:45.782Z,20.50
2023-09-07T10:42:23.700Z,20.70
2023-09-07T10:44:50.875Z,20.70
2023-09-07T10:47:18.062Z,20.90
2023-09-07T10:49:45.120Z,21.00
2023-09-07T10:52:12.170Z,21.00
2023-09-07T10:54:39.047Z,21.10
2023-09-07T10:57:10.440Z,21.10
2023-09-07T10:59:37.561Z,21.10
2023-09-07T11:02:06.281Z,21.10
2023-09-07T11:04:34.136Z,21.10
2023-09-07T11:07:01.948Z,21.20
2023-09-07T11:09:30.799Z,21.20
2023-09-07T11:11:57.937Z,21.30
2023-09-07T11:14:31.164Z,21.40
2023-09-07T11:16:58.462Z,21.50
2023-09-07T11:19:25.380Z,21.50
2023-09-07T11:21:55.234Z,21.70
2023-09-07T11:24:22.419Z,21.80
2023-09-07T11:26:49.504Z,21.90
2023-09-07T11:29:22.491Z,22.00
2023-09-07T11:31:49.530Z,22.10
2023-09-07T11:34:16.858Z,22.20
2023-09-07T11:36:47.384Z,22.30
2023-09-07T11:39:14.631Z,22.40
2023-09-07T11:41:45.483Z,22.40
2023-09-07T11:44:13.010Z,22.60
2023-09-07T11:46:40.910Z,22.60
2023-09-07T11:49:07.950Z,22.80
2023-09-07T11:51:34.956Z,22.80
2023-09-07T11:54:06.022Z,22.70
2023-09-07T11:56:33.389Z,22.70
2023-09-07T11:59:00.501Z,22.80
2023-09-07T12:01:28.567Z,22.80
2023-09-07T12:03:55.955Z,22.80
2023-09-07T12:06:24.676Z,22.80
2023-09-07T12:09:01.111Z,22.80
2023-09-07T12:11:28.337Z,22.90
2023-09-07T12:13:55.516Z,23.10
2023-09-07T12:16:22.919Z,23.20
2023-09-07T12:18:50.703Z,23.20
2023-09-07T12:21:17.638Z,23.20
2023-09-07T12:23:44.610Z,23.20
2023-09-07T12:26:11.655Z,23.20
2023-09-07T12:28:38.662Z,23.30
2023-09-07T12:31:06.143Z,23.40
2023-09-07T12:33:34.429Z,23.50
2023-09-07T12:36:02.059Z,23.50
2023-09-07T12:38:30.274Z,23.60
2023-09-07T12:40:57.529Z,23.60
2023-09-07T12:43:26.402Z,23.60
2023-09-07T12:45:54.085Z,23.70
2023-09-07T12:48:21.501Z,23.80
2023-09-07T12:50:48.461Z,23.80
2023-09-07T12:53:15.559Z,23.90
2023-09-07T12:55:42.837Z,23.90
2023-09-07T12:58:09.874Z,23.80
2023-09-07T13:00:36.885Z,23.70
2023-09-07T13:03:04.719Z,23.80
2023-09-07T13:05:31.700Z,23.80
2023-09-07T13:08:00.523Z,23.90
2023-09-07T13:10:27.547Z,23.90
2023-09-07T13:12:54.431Z,23.90
2023-09-07T13:15:21.366Z,24.00
2023-09-07T13:17:48.349Z,24.10
2023-09-07T13:20:15.491Z,24.10
2023-09-07T13:22:43.802Z,24.20
2023-09-07T13:25:11.129Z,24.20
2023-09-07T13:27:38.056Z,24.20
2023-09-07T13:30:06.902Z,24.20
2023-09-07T13:32:34.217Z,24.30
2023-09-07T13:35:01.481Z,24.40
2023-09-07T13:37:28.375Z,24.40
2023-09-07T13:39:55.504Z,24.40
2023-09-07T13:42:22.392Z,24.40
2023-09-07T13:44:50.755Z,24.40
2023-09-07T13:47:17.865Z,24.50
2023-09-07T13:49:44.745Z,24.40
2023-09-07T13:52:11.694Z,24.30
2023-09-07T13:54:38.739Z,24.30
2023-09-07T13:57:06.972Z,24.20
2023-09-07T13:59:35.803Z,24.30
2023-09-07T14:02:02.962Z,24.40
2023-09-07T14:04:32.085Z,24.40
2023-09-07T14:06:59.165Z,24.30
2023-09-07T14:09:26.180Z,24.30
2023-09-07T14:11:53.148Z,24.30
2023-09-07T14:14:20.200Z,24.20
2023-09-07T14:16:47.401Z,24.20
2023-09-07T14:19:14.515Z,24.20
2023-09-07T14:21:41.385Z,24.20
2023-09-07T14:24:08.457Z,24.20
2023-09-07T14:26:35.644Z,24.10
2023-09-07T14:29:02.623Z,24.20
2023-09-07T14:31:29.806Z,24.20
2023-09-07T14:33:56.858Z,24.20
2023-09-07T14:36:23.912Z,24.10
2023-09-07T14:38:50.963Z,24.20
2023-09-07T14:41:21.075Z,24.10
2023-09-07T14:43:49.248Z,23.90
2023-09-07T14:46:17.039Z,23.80
2023-09-07T14:48:45.772Z,23.80
2023-09-07T14:51:12.763Z,23.80
2023-09-07T14:53:39.813Z,23.80
2023-09-07T14:56:06.869Z,23.80
2023-09-07T14:58:34.305Z,23.80
2023-09-07T15:01:01.441Z,23.80
2023-09-07T15:03:28.455Z,23.80
2023-09-07T15:05:56.060Z,23.60
2023-09-07T15:08:23.374Z,23.40
2023-09-07T15:10:51.219Z,23.30
2023-09-07T15:13:18.522Z,23.20
2023-09-07T15:15:45.699Z,23.10
2023-09-07T15:18:12.878Z,23.10
2023-09-07T15:20:40.060Z,23.00
2023-09-07T15:23:07.245Z,22.90
2023-09-07T15:25:34.299Z,22.90
2023-09-07T15:28:01.374Z,22.90
2023-09-07T15:30:28.469Z,23.00
2023-09-07T15:32:55.668Z,22.90
2023-09-07T15:35:23.161Z,22.90
2023-09-07T15:37:50.350Z,22.90
2023-09-07T15:40:17.422Z,22.90
2023-09-07T15:42:44.563Z,22.80
2023-09-07T15:45:11.590Z,22.70
2023-09-07T15:47:38.805Z,22.60
2023-09-07T15:50:08.526Z,22.60
2023-09-07T15:52:47.377Z,22.40
2023-09-07T15:55:15.748Z,22.30
2023-09-07T15:57:44.789Z,22.30
2023-09-07T16:00:12.263Z,22.20
2023-09-07T16:02:42.323Z,22.20
2023-09-07T16:05:09.782Z,22.10
2023-09-07T16:07:36.747Z,21.90
2023-09-07T16:10:03.829Z,21.90
2023-09-07T16:12:30.859Z,21.80
2023-09-07T16:14:57.784Z,21.80
2023-09-07T16:17:24.767Z,21.80
2023-09-07T16:19:53.374Z,21.80
2023-09-07T16:22:20.500Z,21.90
2023-09-07T16:24:47.476Z,21.90
2023-09-07T16:27:14.519Z,21.90
2023-09-07T16:29:44.815Z,21.80
2023-09-07T16:32:13.621Z,21.80
2023-09-07T16:34:42.074Z,21.70
2023-09-07T16:37:09.618Z,21.70
2023-09-07T16:39:36.627Z,21.70
2023-09-07T16:42:04.194Z,21.60
2023-09-07T16:44:31.279Z,21.60
2023-09-07T16:46:58.237Z,21.70
2023-09-07T16:49:25.300Z,21.60
2023-09-07T16:51:52.354Z,21.60
2023-09-07T16:54:20.112Z,21.60
2023-09-07T16:56:47.161Z,21.60
2023-09-07T16:59:39.527Z,21.60
2023-09-07T17:02:01.066Z,21.60
2023-09-07T17:04:36.779Z,21.50
2023-09-07T17:07:08.005Z,21.50
2023-09-07T17:09:36.520Z,21.40
2023-09-07T17:12:04.097Z,21.30
2023-09-07T17:14:31.576Z,21.20
2023-09-07T17:16:58.647Z,21.10
2023-09-07T17:19:26.126Z,21.10
2023-09-07T17:21:53.436Z,20.90
2023-09-07T17:24:21.175Z,20.90
2023-09-07T17:26:48.489Z,20.80
2023-09-07T17:29:15.673Z,20.80
2023-09-07T17:31:43.003Z,20.70
2023-09-07T17:34:10.321Z,20.60
2023-09-07T17:36:37.381Z,20.50
2023-09-07T17:39:05.066Z,20.40
2023-09-07T17:41:34.242Z,20.30
2023-09-07T17:44:01.460Z,20.20
2023-09-07T17:46:29.128Z,20.10
2023-09-07T17:48:55.992Z,20.10
2023-09-07T17:51:22.954Z,20.00
2023-09-07T17:53:50.861Z,19.90
2023-09-07T17:56:18.109Z,19.80
2023-09-07T17:58:47.037Z,19.70
2023-09-07T18:01:16.215Z,19.60
2023-09-07T18:03:43.755Z,19.60
2023-09-07T18:06:11.326Z,19.50
2023-09-07T18:08:38.885Z,19.40
2023-09-07T18:11:07.076Z,19.40
2023-09-07T18:13:34.236Z,19.30
2023-09-07T18:16:01.254Z,19.20
2023-09-07T18:18:28.937Z,19.20
2023-09-07T18:20:56.120Z,19.20
2023-09-07T18:23:25.080Z,19.20
2023-09-07T18:25:52.978Z,19.10
2023-09-07T18:28:19.964Z,19.00
2023-09-07T18:30:47.247Z,18.80
2023-09-07T18:33:14.420Z,18.80
2023-09-07T18:35:41.436Z,18.70
2023-09-07T18:38:08.496Z,18.70
2023-09-07T18:40:35.743Z,18.70
2023-09-07T18:43:02.689Z,18.60
2023-09-07T18:45:29.689Z,18.60
2023-09-07T18:47:56.641Z,18.40
2023-09-07T18:50:24.972Z,18.40
2023-09-07T18:52:52.551Z,18.30
2023-09-07T18:55:19.963Z,18.30
2023-09-07T18:57:48.396Z,18.30
2023-09-07T19:00:16.678Z,18.20
2023-09-07T19:02:44.374Z,18.10
2023-09-07T19:05:11.677Z,18.00
2023-09-07T19:07:39.913Z,18.00
2023-09-07T19:10:07.377Z,18.00
2023-09-07T19:12:35.021Z,18.10
2023-09-07T19:15:03.008Z,18.00
2023-09-07T19:17:29.937Z,17.90
2023-09-07T19:19:58.150Z,18.00
2023-09-07T19:22:25.198Z,17.90
2023-09-07T19:24:53.249Z,17.70
2023-09-07T19:27:22.842Z,17.70
2023-09-07T19:29:51.936Z,17.70
2023-09-07T19:32:20.599Z,17.60
2023-09-07T19:34:47.885Z,17.60
2023-09-07T19:37:15.012Z,17.50
2023-09-07T19:39:42.164Z,17.40
2023-09-07T19:42:09.201Z,17.40
2023-09-07T19:44:36.451Z,17.40
2023-09-07T19:47:03.973Z,17.30
2023-09-07T19:49:30.929Z,17.30
2023-09-07T19:51:57.842Z,17.30
2023-09-07T19:54:24.864Z,17.20
2023-09-07T19:56:52.071Z,17.10
2023-09-07T19:59:19.231Z,17.10
2023-09-07T20:01:58.602Z,17.20
2023-09-07T20:04:26.929Z,17.20
2023-09-07T20:06:55.681Z,17.20
2023-09-07T20:09:23.211Z,17.20
2023-09-07T20:11:51.083Z,17.10
2023-09-07T20:14:18.793Z,17.00
2023-09-07T20:16:46.548Z,17.00
2023-09-07T20:19:14.224Z,16.90
2023-09-07T20:21:41.377Z,16.90
2023-09-07T20:24:09.702Z,16.80
2023-09-07T20:26:37.735Z,16.70
2023-09-07T20:29:09.217Z,16.70
2023-09-07T20:31:36.270Z,16.70
2023-09-07T20:34:03.333Z,16.60
2023-09-07T20:36:30.218Z,16.70
2023-09-07T20:38:57.153Z,16.70
2023-09-07T20:41:24.479Z,16.70
2023-09-07T20:43:51.718Z,16.60
2023-09-07T20:46:18.794Z,16.50
2023-09-07T20:48:45.842Z,16.50
2023-09-07T20:51:12.896Z,16.40
2023-09-07T20:53:39.928Z,16.40
2023-09-07T20:56:06.918Z,16.30
2023-09-07T20:58:35.020Z,16.30
2023-09-07T21:01:06.599Z,16.30
2023-09-07T21:03:34.048Z,16.40
2023-09-07T21:06:01.151Z,16.30
2023-09-07T21:08:28.262Z,16.30
2023-09-07T21:10:55.254Z,16.30
2023-09-07T21:13:22.275Z,16.30
2023-09-07T21:15:49.233Z,16.20
2023-09-07T21:18:16.393Z,16.20
2023-09-07T21:20:43.664Z,16.10
2023-09-07T21:23:12.144Z,16.10
2023-09-07T21:25:39.353Z,16.10
2023-09-07T21:28:07.791Z,16.10
2023-09-07T21:30:34.919Z,16.10
2023-09-07T21:33:02.414Z,16.10
2023-09-07T21:35:29.470Z,16.10
2023-09-07T21:37:56.778Z,16.10
2023-09-07T21:40:24.080Z,16.10
2023-09-07T21:42:51.171Z,16.10
2023-09-07T21:45:18.181Z,16.10
2023-09-07T21:47:45.292Z,16.10
2023-09-07T21:50:12.397Z,16.10
2023-09-07T21:52:39.648Z,16.00
2023-09-07T21:55:06.768Z,16.00
2023-09-07T21:57:33.712Z,15.90
2023-09-07T22:00:00.728Z,15.90
2023-09-07T22:02:27.837Z,15.80
2023-09-07T22:04:54.801Z,15.80
2023-09-07T22:07:21.913Z,15.70
2023-09-07T22:09:49.797Z,15.70
2023-09-07T22:12:16.848Z,15.70
2023-09-07T22:14:43.810Z,15.70
2023-09-07T22:17:12.719Z,15.70
2023-09-07T22:19:39.969Z,15.60
2023-09-07T22:22:07.100Z,15.60
2023-09-07T22:24:34.298Z,15.60
2023-09-07T22:27:01.402Z,15.50
2023-09-07T22:29:28.460Z,15.50
2023-09-07T22:31:55.392Z,15.40
2023-09-07T22:34:22.457Z,15.50
2023-09-07T22:36:49.527Z,15.50
2023-09-07T22:39:17.172Z,15.40
2023-09-07T22:41:44.207Z,15.30
2023-09-07T22:44:12.045Z,15.30
2023-09-07T22:46:39.126Z,15.30
2023-09-07T22:49:07.575Z,15.30
2023-09-07T22:51:35.452Z,15.20
2023-09-07T22:54:02.528Z,15.20
2023-09-07T22:56:29.871Z,15.10
2023-09-07T22:58:56.916Z,15.10
2023-09-07T23:01:23.958Z,15.10
2023-09-07T23:03:51.134Z,15.10
2023-09-07T23:06:18.487Z,15.10
2023-09-07T23:08:46.011Z,15.00
2023-09-07T23:11:12.976Z,15.10
2023-09-07T23:13:40.566Z,15.00
2023-09-07T23:16:09.305Z,15.00
2023-09-07T23:18:36.443Z,15.00
2023-09-07T23:21:03.799Z,14.90
2023-09-07T23:23:31.020Z,14.80
2023-09-07T23:25:58.038Z,14.70
2023-09-07T23:28:25.166Z,14.70
2023-09-07T23:30:52.764Z,14.60
2023-09-07T23:33:19.818Z,14.60
2023-09-07T23:35:46.897Z,14.60
2023-09-07T23:38:13.876Z,14.50
2023-09-07T23:40:40.805Z,14.50
2023-09-07T23:43:09.342Z,14.50
2023-09-07T23:45:36.520Z,14.40
2023-09-07T23:48:03.790Z,14.40
2023-09-07T23:50:30.833Z,14.40
2023-09-07T23:52:57.709Z,14.30
2023-09-07T23:55:24.665Z,14.30
2023-09-07T23:57:51.726Z,14.30
